createdAt,value
2023-03-28T00:00:51.333Z,0.00
2023-03-28T00:01:51.331Z,0.00
2023-03-28T00:02:51.354Z,0.00
2023-03-28T00:03:51.334Z,0.00
2023-03-28T00:04:51.292Z,0.00
2023-03-28T00:05:51.319Z,0.00
2023-03-28T00:06:51.273Z,0.00
2023-03-28T00:07:51.247Z,0.00
2023-03-28T00:08:51.237Z,0.00
2023-03-28T00:09:51.263Z,0.00
2023-03-28T00:10:51.233Z,0.00
2023-03-28T00:11:51.225Z,0.00
2023-03-28T00:12:51.199Z,0.00
2023-03-28T00:13:51.184Z,0.00
2023-03-28T00:14:51.169Z,0.00
2023-03-28T00:15:51.208Z,0.00
2023-03-28T00:16:51.152Z,0.00
2023-03-28T00:17:51.181Z,0.00
2023-03-28T00:18:51.246Z,0.00
2023-03-28T00:19:51.127Z,0.00
2023-03-28T00:20:51.095Z,0.00
2023-03-28T00:21:51.114Z,0.00
2023-03-28T00:22:51.098Z,0.00
2023-03-28T00:23:51.088Z,0.00
2023-03-28T00:24:51.049Z,0.00
2023-03-28T00:25:51.062Z,0.00
2023-03-28T00:26:51.054Z,0.00
2023-03-28T00:27:51.023Z,0.00
2023-03-28T00:28:51.038Z,0.00
2023-03-28T00:29:51.001Z,0.00
2023-03-28T00:30:51.069Z,0.00
2023-03-28T00:31:51.080Z,0.00
2023-03-28T00:32:51.062Z,0.00
2023-03-28T00:33:50.990Z,0.00
2023-03-28T00:34:50.952Z,0.00
2023-03-28T00:35:50.958Z,0.00
2023-03-28T00:36:50.934Z,0.00
2023-03-28T00:37:50.924Z,0.00
2023-03-28T00:38:50.915Z,0.00
2023-03-28T00:39:50.887Z,0.00
2023-03-28T00:40:50.882Z,0.00
2023-03-28T00:41:50.884Z,0.00
2023-03-28T00:42:50.868Z,0.00
2023-03-28T00:43:50.862Z,0.00
2023-03-28T00:44:50.854Z,0.00
2023-03-28T00:45:59.221Z,0.00
2023-03-28T00:46:51.874Z,0.00
2023-03-28T00:47:50.858Z,0.00
2023-03-28T00:48:50.784Z,0.00
2023-03-28T00:49:50.782Z,0.00
2023-03-28T00:50:50.764Z,0.00
2023-03-28T00:51:50.754Z,0.00
2023-03-28T00:52:50.744Z,0.00
2023-03-28T00:53:50.753Z,0.00
2023-03-28T00:54:50.716Z,0.00
2023-03-28T00:55:50.722Z,0.00
2023-03-28T00:56:50.816Z,0.00
2023-03-28T00:57:50.731Z,0.00
2023-03-28T00:58:50.685Z,0.00
2023-03-28T00:59:50.661Z,0.00
2023-03-28T01:00:50.684Z,0.00
2023-03-28T01:01:50.756Z,0.00
2023-03-28T01:02:50.817Z,0.00
2023-03-28T01:03:50.703Z,0.00
2023-03-28T01:04:50.610Z,0.00
2023-03-28T01:05:50.605Z,0.00
2023-03-28T01:06:50.587Z,0.00
2023-03-28T01:07:50.593Z,0.00
2023-03-28T01:08:50.557Z,0.00
2023-03-28T01:09:50.552Z,0.00
2023-03-28T01:10:50.541Z,0.00
2023-03-28T01:11:50.535Z,0.00
2023-03-28T01:12:50.527Z,0.00
2023-03-28T01:13:50.531Z,0.00
2023-03-28T01:14:50.490Z,0.00
2023-03-28T01:15:50.576Z,0.00
2023-03-28T01:16:50.470Z,0.00
2023-03-28T01:17:50.521Z,0.00
2023-03-28T01:18:50.462Z,0.00
2023-03-28T01:19:50.462Z,0.00
2023-03-28T01:20:50.420Z,0.00
2023-03-28T01:21:50.402Z,0.00
2023-03-28T01:22:56.952Z,0.00
2023-03-28T01:23:51.380Z,0.00
2023-03-28T01:24:50.382Z,0.00
2023-03-28T01:25:50.378Z,0.00
2023-03-28T01:26:50.360Z,0.00
2023-03-28T01:27:50.340Z,0.00
2023-03-28T01:28:50.346Z,0.00
2023-03-28T01:29:50.331Z,0.00
2023-03-28T01:30:50.317Z,0.00
2023-03-28T01:31:50.326Z,0.00
2023-03-28T01:32:50.346Z,0.00
2023-03-28T01:33:50.269Z,0.00
2023-03-28T01:34:50.262Z,0.00
2023-03-28T01:35:50.299Z,0.00
2023-03-28T01:36:50.252Z,0.00
2023-03-28T01:37:50.227Z,0.00
2023-03-28T01:38:50.212Z,0.00
2023-03-28T01:39:50.204Z,0.00
2023-03-28T01:40:50.222Z,0.00
2023-03-28T01:41:50.180Z,0.00
2023-03-28T01:42:50.186Z,0.00
2023-03-28T01:43:50.176Z,0.00
2023-03-28T01:44:50.148Z,0.00
2023-03-28T01:45:50.216Z,0.00
2023-03-28T01:46:50.153Z,0.00
2023-03-28T01:47:50.128Z,0.00
2023-03-28T01:48:50.108Z,0.00
2023-03-28T01:49:50.087Z,0.00
2023-03-28T01:50:50.078Z,0.00
2023-03-28T01:51:50.102Z,0.00
2023-03-28T01:52:50.062Z,0.00
2023-03-28T01:53:50.045Z,0.00
2023-03-28T01:54:50.048Z,0.00
2023-03-28T01:55:50.024Z,0.00
2023-03-28T01:56:50.066Z,0.00
2023-03-28T01:57:50.067Z,0.00
2023-03-28T01:58:49.993Z,0.00
2023-03-28T01:59:49.982Z,0.00
2023-03-28T02:00:49.991Z,0.00
2023-03-28T02:01:49.975Z,0.00
2023-03-28T02:02:50.088Z,0.00
2023-03-28T02:03:49.930Z,0.00
2023-03-28T02:04:49.932Z,0.00
2023-03-28T02:05:49.924Z,0.00
2023-03-28T02:06:49.922Z,0.00
2023-03-28T02:07:49.886Z,0.00
2023-03-28T02:08:49.879Z,0.00
2023-03-28T02:09:49.862Z,0.00
2023-03-28T02:10:49.884Z,0.00
2023-03-28T02:11:49.843Z,0.00
2023-03-28T02:12:49.840Z,0.00
2023-03-28T02:13:49.848Z,0.00
2023-03-28T02:14:49.810Z,0.00
2023-03-28T02:15:49.817Z,0.00
2023-03-28T02:16:49.944Z,0.00
2023-03-28T02:17:49.862Z,0.00
2023-03-28T02:18:49.806Z,0.00
2023-03-28T02:19:49.760Z,0.00
2023-03-28T02:20:49.759Z,0.00
2023-03-28T02:21:49.733Z,0.00
2023-03-28T02:22:49.746Z,0.00
2023-03-28T02:23:49.722Z,0.00
2023-03-28T02:24:49.823Z,0.00
2023-03-28T02:25:49.691Z,0.00
2023-03-28T02:26:49.686Z,0.00
2023-03-28T02:27:49.677Z,0.00
2023-03-28T02:28:49.670Z,0.00
2023-03-28T02:29:49.667Z,0.00
2023-03-28T02:30:49.656Z,0.00
2023-03-28T02:31:49.729Z,0.00
2023-03-28T02:32:49.714Z,0.00
2023-03-28T02:33:49.621Z,0.00
2023-03-28T02:34:49.619Z,0.00
2023-03-28T02:35:49.657Z,0.00
2023-03-28T02:36:49.601Z,0.00
2023-03-28T02:37:49.581Z,0.00
2023-03-28T02:38:49.555Z,0.00
2023-03-28T02:39:49.538Z,0.00
2023-03-28T02:40:49.528Z,0.00
2023-03-28T02:41:49.537Z,0.00
2023-03-28T02:42:49.538Z,0.00
2023-03-28T02:43:49.495Z,0.00
2023-03-28T02:44:49.503Z,0.00
2023-03-28T02:45:49.496Z,0.00
2023-03-28T02:46:49.463Z,0.00
2023-03-28T02:47:49.506Z,0.00
2023-03-28T02:48:49.453Z,0.00
2023-03-28T02:49:50.855Z,0.00
2023-03-28T02:50:49.439Z,0.00
2023-03-28T02:51:49.404Z,0.00
2023-03-28T02:52:49.399Z,0.00
2023-03-28T02:53:49.390Z,0.00
2023-03-28T02:54:49.394Z,0.00
2023-03-28T02:55:49.380Z,0.00
2023-03-28T02:56:49.406Z,0.00
2023-03-28T02:57:49.338Z,0.00
2023-03-28T02:58:49.336Z,0.00
2023-03-28T02:59:49.322Z,0.00
2023-03-28T03:00:49.338Z,0.00
2023-03-28T03:01:49.322Z,0.00
2023-03-28T03:02:49.357Z,0.00
2023-03-28T03:03:49.301Z,0.00
2023-03-28T03:04:49.259Z,0.00
2023-03-28T03:05:49.294Z,0.00
2023-03-28T03:06:49.259Z,0.00
2023-03-28T03:07:49.223Z,0.00
2023-03-28T03:08:49.220Z,0.00
2023-03-28T03:09:49.206Z,0.00
2023-03-28T03:10:49.214Z,0.00
2023-03-28T03:11:49.196Z,0.00
2023-03-28T03:12:49.181Z,0.00
2023-03-28T03:13:49.175Z,0.00
2023-03-28T03:14:49.150Z,0.00
2023-03-28T03:15:49.236Z,0.00
2023-03-28T03:16:49.127Z,0.00
2023-03-28T03:17:49.153Z,0.00
2023-03-28T03:18:49.123Z,0.00
2023-03-28T03:19:49.108Z,0.00
2023-03-28T03:20:49.101Z,0.00
2023-03-28T03:21:49.088Z,0.00
2023-03-28T03:22:49.078Z,0.00
2023-03-28T03:23:49.051Z,0.00
2023-03-28T03:24:49.056Z,0.00
2023-03-28T03:25:49.056Z,0.00
2023-03-28T03:26:49.012Z,0.00
2023-03-28T03:27:49.000Z,0.00
2023-03-28T03:28:48.989Z,0.00
2023-03-28T03:29:49.001Z,0.00
2023-03-28T03:30:48.975Z,0.00
2023-03-28T03:31:49.018Z,0.00
2023-03-28T03:32:48.991Z,0.00
2023-03-28T03:33:48.933Z,0.00
2023-03-28T03:34:48.948Z,0.00
2023-03-28T03:35:48.915Z,0.00
2023-03-28T03:36:48.897Z,0.00
2023-03-28T03:37:48.999Z,0.00
2023-03-28T03:38:48.874Z,0.00
2023-03-28T03:39:48.861Z,0.00
2023-03-28T03:40:48.873Z,0.00
2023-03-28T03:41:48.841Z,0.00
2023-03-28T03:42:48.831Z,0.00
2023-03-28T03:43:48.852Z,0.00
2023-03-28T03:44:48.820Z,0.00
2023-03-28T03:45:48.813Z,0.00
2023-03-28T03:46:49.004Z,0.00
2023-03-28T03:47:48.869Z,0.00
2023-03-28T03:48:49.990Z,0.00
2023-03-28T03:49:48.772Z,0.00
2023-03-28T03:50:48.750Z,0.00
2023-03-28T03:51:48.729Z,0.00
2023-03-28T03:52:48.718Z,0.00
2023-03-28T03:53:48.743Z,0.00
2023-03-28T03:54:48.696Z,0.00
2023-03-28T03:55:48.682Z,0.00
2023-03-28T03:56:48.723Z,0.00
2023-03-28T03:57:48.662Z,0.00
2023-03-28T03:58:48.652Z,0.00
2023-03-28T03:59:48.636Z,0.00
2023-03-28T04:00:48.627Z,0.00
2023-03-28T04:01:48.659Z,0.00
2023-03-28T04:02:48.664Z,0.00
2023-03-28T04:03:48.619Z,0.00
2023-03-28T04:04:48.623Z,0.00
2023-03-28T04:05:48.569Z,0.00
2023-03-28T04:06:48.558Z,0.00
2023-03-28T04:07:48.583Z,0.00
2023-03-28T04:08:49.381Z,0.00
2023-03-28T04:09:48.557Z,0.00
2023-03-28T04:10:48.522Z,0.00
2023-03-28T04:11:48.499Z,0.00
2023-03-28T04:12:48.512Z,0.00
2023-03-28T04:13:48.478Z,0.00
2023-03-28T04:14:48.477Z,0.00
2023-03-28T04:15:48.478Z,0.00
2023-03-28T04:16:48.443Z,0.00
2023-03-28T04:17:48.518Z,0.00
2023-03-28T04:18:48.423Z,0.00
2023-03-28T04:19:48.412Z,0.00
2023-03-28T04:20:48.410Z,0.00
2023-03-28T04:21:48.391Z,0.00
2023-03-28T04:22:57.578Z,0.00
2023-03-28T04:23:48.459Z,0.00
2023-03-28T04:24:48.359Z,0.00
2023-03-28T04:25:48.421Z,0.00
2023-03-28T04:26:48.356Z,0.00
2023-03-28T04:27:48.337Z,4.00
2023-03-28T04:28:48.352Z,4.00
2023-03-28T04:29:48.322Z,0.00
2023-03-28T04:30:48.299Z,0.00
2023-03-28T04:31:48.351Z,0.00
2023-03-28T04:32:48.312Z,4.00
2023-03-28T04:33:48.318Z,0.00
2023-03-28T04:34:48.318Z,4.00
2023-03-28T04:35:48.352Z,4.00
2023-03-28T04:36:48.226Z,8.00
2023-03-28T04:37:48.228Z,8.00
2023-03-28T04:38:48.435Z,8.00
2023-03-28T04:39:48.229Z,12.00
2023-03-28T04:40:48.190Z,12.00
2023-03-28T04:41:48.266Z,16.00
2023-03-28T04:42:48.224Z,16.00
2023-03-28T04:43:48.180Z,20.00
2023-03-28T04:44:48.172Z,20.00
2023-03-28T04:45:48.203Z,24.00
2023-03-28T04:46:48.117Z,32.00
2023-03-28T04:47:48.225Z,36.00
2023-03-28T04:48:48.117Z,40.00
2023-03-28T04:49:48.124Z,44.00
2023-03-28T04:50:48.128Z,52.00
2023-03-28T04:51:48.125Z,56.00
2023-03-28T04:52:48.119Z,56.00
2023-03-28T04:53:48.056Z,72.00
2023-03-28T04:54:48.073Z,88.00
2023-03-28T04:55:48.084Z,96.00
2023-03-28T04:56:48.134Z,108.00
2023-03-28T04:57:48.031Z,112.00
2023-03-28T04:58:48.013Z,132.00
2023-03-28T04:59:47.976Z,136.00
2023-03-28T05:00:47.967Z,124.00
2023-03-28T05:01:47.998Z,148.00
2023-03-28T05:02:48.084Z,160.00
2023-03-28T05:03:47.998Z,184.00
2023-03-28T05:04:47.932Z,188.00
2023-03-28T05:05:47.898Z,216.00
2023-03-28T05:06:47.893Z,232.00
2023-03-28T05:07:47.878Z,232.00
2023-03-28T05:08:47.867Z,236.00
2023-03-28T05:09:47.897Z,244.00
2023-03-28T05:10:47.861Z,240.00
2023-03-28T05:11:47.837Z,252.00
2023-03-28T05:12:47.820Z,296.00
2023-03-28T05:13:47.824Z,344.00
2023-03-28T05:14:47.856Z,376.00
2023-03-28T05:15:47.829Z,360.00
2023-03-28T05:16:47.812Z,388.00
2023-03-28T05:17:47.810Z,368.00
2023-03-28T05:18:47.751Z,304.00
2023-03-28T05:19:47.738Z,260.00
2023-03-28T05:20:47.759Z,232.00
2023-03-28T05:21:47.758Z,248.00
2023-03-28T05:22:47.718Z,300.00
2023-03-28T05:23:51.709Z,328.00
2023-03-28T05:24:47.710Z,380.00
2023-03-28T05:25:47.693Z,464.00
2023-03-28T05:26:47.661Z,512.00
2023-03-28T05:27:47.691Z,528.00
2023-03-28T05:28:47.682Z,484.00
2023-03-28T05:29:48.048Z,472.00
2023-03-28T05:30:47.716Z,492.00
2023-03-28T05:31:47.787Z,544.00
2023-03-28T05:32:47.686Z,572.00
2023-03-28T05:33:47.596Z,552.00
2023-03-28T05:34:47.640Z,556.00
2023-03-28T05:35:47.605Z,536.00
2023-03-28T05:36:47.550Z,572.00
2023-03-28T05:37:47.601Z,532.00
2023-03-28T05:38:47.531Z,524.00
2023-03-28T05:39:47.536Z,584.00
2023-03-28T05:40:47.503Z,704.00
2023-03-28T05:41:47.493Z,688.00
2023-03-28T05:42:47.522Z,608.00
2023-03-28T05:43:47.472Z,552.00
2023-03-28T05:44:47.470Z,552.00
2023-03-28T05:45:47.523Z,600.00
2023-03-28T05:46:47.436Z,656.00
2023-03-28T05:47:47.489Z,728.00
2023-03-28T05:48:49.618Z,740.00
2023-03-28T05:49:47.420Z,708.00
2023-03-28T05:50:47.392Z,788.00
2023-03-28T05:51:47.384Z,808.00
2023-03-28T05:52:47.392Z,924.00
2023-03-28T05:53:47.366Z,1224.00
2023-03-28T05:54:50.629Z,1324.00
2023-03-28T05:55:47.342Z,1524.00
2023-03-28T05:56:47.400Z,1512.00
2023-03-28T05:57:47.350Z,1408.00
2023-03-28T05:58:47.307Z,1244.00
2023-03-28T05:59:47.373Z,1236.00
2023-03-28T06:00:47.292Z,1440.00
2023-03-28T06:01:47.406Z,1644.00
2023-03-28T06:02:47.306Z,1500.00
2023-03-28T06:03:47.309Z,1748.00
2023-03-28T06:04:47.289Z,2128.00
2023-03-28T06:05:47.249Z,2540.00
2023-03-28T06:06:47.229Z,2900.00
2023-03-28T06:07:47.226Z,3996.00
2023-03-28T06:08:47.210Z,3624.00
2023-03-28T06:09:47.183Z,3880.00
2023-03-28T06:10:47.164Z,3932.00
2023-03-28T06:11:47.172Z,4272.00
2023-03-28T06:12:47.163Z,4836.00
2023-03-28T06:13:47.139Z,6176.00
2023-03-28T06:14:47.120Z,6180.00
2023-03-28T06:15:47.133Z,7124.00
2023-03-28T06:16:47.140Z,5452.00
2023-03-28T06:17:47.200Z,5564.00
2023-03-28T06:18:47.078Z,4816.00
2023-03-28T06:19:47.074Z,4744.00
2023-03-28T06:20:47.054Z,6804.00
2023-03-28T06:21:47.047Z,8340.00
2023-03-28T06:22:47.048Z,7408.00
2023-03-28T06:23:47.032Z,5932.00
2023-03-28T06:24:47.004Z,4388.00
2023-03-28T06:25:47.057Z,3468.00
2023-03-28T06:26:46.987Z,2488.00
2023-03-28T06:27:46.993Z,2144.00
2023-03-28T06:28:46.965Z,1796.00
2023-03-28T06:29:46.987Z,1900.00
2023-03-28T06:30:46.941Z,2288.00
2023-03-28T06:31:47.017Z,2312.00
2023-03-28T06:32:46.967Z,2440.00
2023-03-28T06:33:46.943Z,2240.00
2023-03-28T06:34:46.900Z,1960.00
2023-03-28T06:35:47.015Z,1868.00
2023-03-28T06:36:46.877Z,1936.00
2023-03-28T06:37:46.907Z,1840.00
2023-03-28T06:38:46.988Z,1920.00
2023-03-28T06:39:46.850Z,1900.00
2023-03-28T06:40:46.885Z,1832.00
2023-03-28T06:41:46.853Z,1832.00
2023-03-28T06:42:46.829Z,1872.00
2023-03-28T06:43:46.799Z,1784.00
2023-03-28T06:44:46.810Z,1724.00
2023-03-28T06:45:46.785Z,1680.00
2023-03-28T06:46:46.866Z,1712.00
2023-03-28T06:47:46.842Z,1960.00
2023-03-28T06:48:46.738Z,1916.00
2023-03-28T06:49:46.753Z,1720.00
2023-03-28T06:50:54.390Z,1932.00
2023-03-28T06:51:54.390Z,2348.00
2023-03-28T06:52:46.780Z,2752.00
2023-03-28T06:53:46.711Z,2548.00
2023-03-28T06:54:53.868Z,2312.00
2023-03-28T06:55:54.344Z,2336.00
2023-03-28T06:56:46.712Z,2660.00
2023-03-28T06:57:46.649Z,2812.00
2023-03-28T06:58:46.647Z,2792.00
2023-03-28T06:59:46.648Z,2644.00
2023-03-28T07:00:46.654Z,2568.00
2023-03-28T07:01:46.631Z,2432.00
2023-03-28T07:02:46.651Z,2496.00
2023-03-28T07:03:47.021Z,2660.00
2023-03-28T07:04:46.573Z,2764.00
2023-03-28T07:05:46.612Z,3084.00
2023-03-28T07:06:46.566Z,2720.00
2023-03-28T07:07:46.528Z,2816.00
2023-03-28T07:08:46.532Z,3124.00
2023-03-28T07:09:46.531Z,3144.00
2023-03-28T07:10:46.495Z,3216.00
2023-03-28T07:11:46.502Z,3612.00
2023-03-28T07:12:46.479Z,3500.00
2023-03-28T07:13:46.510Z,2680.00
2023-03-28T07:14:46.480Z,2568.00
2023-03-28T07:15:46.468Z,2456.00
2023-03-28T07:16:46.466Z,2564.00
2023-03-28T07:17:46.489Z,2696.00
2023-03-28T07:18:46.438Z,3296.00
2023-03-28T07:19:46.941Z,3692.00
2023-03-28T07:20:51.925Z,3828.00
2023-03-28T07:21:47.526Z,4768.00
2023-03-28T07:22:46.448Z,4636.00
2023-03-28T07:23:46.366Z,4592.00
2023-03-28T07:24:46.338Z,4696.00
2023-03-28T07:25:46.337Z,4692.00
2023-03-28T07:26:46.313Z,4748.00
2023-03-28T07:27:46.334Z,5124.00
2023-03-28T07:28:46.313Z,5024.00
2023-03-28T07:29:46.310Z,5248.00
2023-03-28T07:30:46.284Z,5456.00
2023-03-28T07:31:46.332Z,5492.00
2023-03-28T07:33:46.271Z,6264.00
2023-03-28T07:34:46.254Z,6812.00
2023-03-28T07:35:46.291Z,5776.00
2023-03-28T07:36:46.239Z,5204.00
2023-03-28T07:37:46.216Z,5176.00
2023-03-28T07:38:48.637Z,5452.00
2023-03-28T07:39:46.183Z,6096.00
2023-03-28T07:40:46.192Z,5936.00
2023-03-28T07:41:46.170Z,4344.00
2023-03-28T07:42:46.142Z,4832.00
2023-03-28T07:43:46.120Z,7604.00
2023-03-28T07:44:46.130Z,9540.00
2023-03-28T07:45:46.135Z,12804.00
2023-03-28T07:46:46.114Z,10872.00
2023-03-28T07:47:46.096Z,6644.00
2023-03-28T07:48:46.092Z,5492.00
2023-03-28T07:49:46.064Z,4788.00
2023-03-28T07:50:46.043Z,4456.00
2023-03-28T07:51:46.032Z,4340.00
2023-03-28T07:52:46.048Z,4052.00
2023-03-28T07:53:46.202Z,4184.00
2023-03-28T07:54:46.046Z,4540.00
2023-03-28T07:55:54.558Z,5200.00
2023-03-28T07:56:47.035Z,6428.00
2023-03-28T07:57:45.973Z,7392.00
2023-03-28T07:58:45.966Z,7696.00
2023-03-28T07:59:45.973Z,8512.00
2023-03-28T08:00:45.997Z,7664.00
2023-03-28T08:01:46.224Z,8160.00
2023-03-28T08:02:46.011Z,8500.00
2023-03-28T08:03:46.012Z,8108.00
2023-03-28T08:04:45.899Z,8048.00
2023-03-28T08:05:45.951Z,7884.00
2023-03-28T08:06:45.913Z,6844.00
2023-03-28T08:07:45.888Z,6080.00
2023-03-28T08:08:45.852Z,5724.00
2023-03-28T08:09:45.883Z,5476.00
2023-03-28T08:10:45.825Z,5764.00
2023-03-28T08:11:45.809Z,5596.00
2023-03-28T08:12:45.821Z,5540.00
2023-03-28T08:13:45.794Z,5068.00
2023-03-28T08:14:45.769Z,4448.00
2023-03-28T08:15:45.805Z,4320.00
2023-03-28T08:16:45.782Z,4252.00
2023-03-28T08:17:45.812Z,6152.00
2023-03-28T08:18:47.460Z,7288.00
2023-03-28T08:19:45.737Z,8620.00
2023-03-28T08:20:45.702Z,9896.00
2023-03-28T08:21:45.695Z,9140.00
2023-03-28T08:22:45.705Z,8236.00
2023-03-28T08:23:45.692Z,7576.00
2023-03-28T08:24:45.662Z,6432.00
2023-03-28T08:25:45.732Z,7420.00
2023-03-28T08:26:48.547Z,8624.00
2023-03-28T08:27:45.699Z,9112.00
2023-03-28T08:28:45.612Z,10632.00
2023-03-28T08:29:45.628Z,8224.00
2023-03-28T08:30:45.589Z,7704.00
2023-03-28T08:31:45.685Z,7408.00
2023-03-28T08:32:48.233Z,6676.00
2023-03-28T08:33:45.583Z,5964.00
2023-03-28T08:34:45.563Z,5272.00
2023-03-28T08:35:45.572Z,4968.00
2023-03-28T08:36:45.522Z,5416.00
2023-03-28T08:37:45.534Z,6068.00
2023-03-28T08:38:45.503Z,6460.00
2023-03-28T08:39:45.491Z,6472.00
2023-03-28T08:40:50.020Z,6168.00
2023-03-28T08:41:45.504Z,5728.00
2023-03-28T08:42:45.455Z,4660.00
2023-03-28T08:43:45.471Z,3396.00
2023-03-28T08:44:48.326Z,3200.00
2023-03-28T08:45:45.439Z,3152.00
2023-03-28T08:46:45.539Z,6548.00
2023-03-28T08:47:45.496Z,6548.00
2023-03-28T08:48:45.392Z,6328.00
2023-03-28T08:49:45.391Z,6404.00
2023-03-28T08:50:45.390Z,6616.00
2023-03-28T08:51:45.401Z,6576.00
2023-03-28T08:52:45.362Z,6440.00
2023-03-28T08:53:45.385Z,6412.00
2023-03-28T08:54:53.169Z,6456.00
2023-03-28T08:55:45.500Z,6548.00
2023-03-28T08:56:45.438Z,6776.00
2023-03-28T08:57:45.448Z,7232.00
2023-03-28T08:58:45.324Z,8332.00
2023-03-28T08:59:45.302Z,10020.00
2023-03-28T09:00:45.256Z,9108.00
2023-03-28T09:01:45.431Z,6380.00
2023-03-28T09:02:45.334Z,5560.00
2023-03-28T09:03:45.324Z,6628.00
2023-03-28T09:06:41.637Z,6300.00
2023-03-28T09:07:41.915Z,6764.00
2023-03-28T09:08:41.615Z,7156.00
2023-03-28T09:09:49.436Z,8480.00
2023-03-28T09:10:41.618Z,9880.00
2023-03-28T09:13:16.526Z,9236.00
2023-03-28T09:14:16.456Z,8676.00
2023-03-28T09:15:16.387Z,7800.00
2023-03-28T09:16:16.500Z,8060.00
2023-03-28T09:17:24.587Z,8128.00
2023-03-28T09:18:16.386Z,7492.00
2023-03-28T09:20:43.688Z,8264.00
2023-03-28T09:21:43.757Z,6864.00
2023-03-28T09:22:43.752Z,6332.00
2023-03-28T09:23:43.720Z,6248.00
2023-03-28T09:24:43.752Z,5796.00
2023-03-28T09:25:51.692Z,5480.00
2023-03-28T09:26:44.028Z,6652.00
2023-03-28T09:27:53.911Z,8720.00
2023-03-28T09:30:11.503Z,10060.00
2023-03-28T09:31:11.465Z,10328.00
2023-03-28T09:42:09.922Z,9168.00
2023-03-28T09:43:10.073Z,4880.00
2023-03-28T09:44:10.514Z,4600.00
2023-03-28T09:45:10.043Z,8384.00
2023-03-28T09:46:09.883Z,8868.00
2023-03-28T09:47:19.185Z,9364.00
2023-03-28T09:48:10.205Z,7916.00
2023-03-28T09:49:09.811Z,9480.00
2023-03-28T09:50:13.336Z,9840.00
2023-03-28T09:51:09.582Z,12160.00
2023-03-28T09:52:10.536Z,11004.00
2023-03-28T09:53:09.588Z,8508.00
2023-03-28T09:54:09.611Z,7240.00
2023-03-28T09:55:09.622Z,6088.00
2023-03-28T09:56:09.621Z,5452.00
2023-03-28T09:57:09.594Z,4908.00
2023-03-28T09:58:09.521Z,4504.00
2023-03-28T09:59:09.723Z,5176.00
2023-03-28T10:00:09.579Z,5744.00
2023-03-28T10:01:09.665Z,9448.00
2023-03-28T10:03:32.077Z,9592.00
2023-03-28T10:04:31.959Z,10228.00
2023-03-28T10:05:31.907Z,10924.00
2023-03-28T10:06:31.969Z,10824.00
2023-03-28T10:07:31.954Z,10856.00
2023-03-28T10:08:31.758Z,10564.00
2023-03-28T10:09:31.956Z,9356.00
2023-03-28T10:10:31.872Z,5532.00
2023-03-28T10:11:31.766Z,7240.00
2023-03-28T10:12:31.740Z,11424.00
2023-03-28T10:13:31.802Z,10792.00
2023-03-28T10:14:31.725Z,9588.00
2023-03-28T10:15:31.745Z,7808.00
2023-03-28T10:16:31.756Z,7380.00
2023-03-28T10:23:48.735Z,5864.00
2023-03-28T10:24:48.684Z,11220.00
2023-03-28T10:25:48.740Z,12164.00
2023-03-28T10:26:48.659Z,10376.00
2023-03-28T10:27:48.669Z,7632.00
2023-03-28T10:28:48.653Z,8792.00
2023-03-28T10:29:48.618Z,9120.00
2023-03-28T10:30:48.683Z,8664.00
2023-03-28T10:31:48.607Z,8172.00
2023-03-28T10:32:48.654Z,8904.00
2023-03-28T10:33:48.579Z,12888.00
2023-03-28T10:34:48.622Z,12584.00
2023-03-28T10:35:48.626Z,11104.00
2023-03-28T10:36:48.588Z,10932.00
2023-03-28T10:37:48.548Z,7832.00
2023-03-28T10:38:48.561Z,8864.00
2023-03-28T10:39:48.567Z,9688.00
2023-03-28T10:40:48.548Z,9688.00
2023-03-28T10:41:48.505Z,7236.00
2023-03-28T10:42:48.482Z,9060.00
2023-03-28T10:43:48.477Z,9952.00
2023-03-28T10:44:49.119Z,9836.00
2023-03-28T10:45:48.478Z,9660.00
2023-03-28T10:46:48.502Z,4848.00
2023-03-28T10:47:48.482Z,5416.00
2023-03-28T10:48:48.422Z,6136.00
2023-03-28T10:49:48.399Z,5900.00
2023-03-28T10:50:48.426Z,7856.00
2023-03-28T10:51:48.410Z,8660.00
2023-03-28T10:52:48.371Z,5260.00
2023-03-28T10:53:48.354Z,9808.00
2023-03-28T10:54:48.349Z,11720.00
2023-03-28T10:55:48.370Z,10412.00
2023-03-28T10:56:48.402Z,5768.00
2023-03-28T10:57:48.334Z,4828.00
2023-03-28T10:58:48.374Z,5380.00
2023-03-28T10:59:48.297Z,6180.00
2023-03-28T11:00:48.312Z,6376.00
2023-03-28T11:01:48.352Z,5408.00
2023-03-28T11:02:48.423Z,5824.00
2023-03-28T11:03:48.440Z,6408.00
2023-03-28T11:04:48.246Z,8236.00
2023-03-28T11:06:01.681Z,8040.00
2023-03-28T11:06:49.216Z,7156.00
2023-03-28T11:07:48.301Z,6060.00
2023-03-28T11:08:48.205Z,6160.00
2023-03-28T11:09:48.329Z,10096.00
2023-03-28T11:10:48.186Z,10204.00
2023-03-28T11:11:48.193Z,9608.00
2023-03-28T11:12:55.039Z,10312.00
2023-03-28T11:13:49.154Z,6316.00
2023-03-28T11:14:48.163Z,11864.00
2023-03-28T11:15:48.216Z,11896.00
2023-03-28T11:16:48.120Z,11272.00
2023-03-28T11:17:48.216Z,7708.00
2023-03-28T11:18:48.085Z,6868.00
2023-03-28T11:19:48.095Z,7056.00
2023-03-28T11:20:48.058Z,7768.00
2023-03-28T11:21:48.042Z,8280.00
2023-03-28T11:23:02.747Z,6980.00
2023-03-28T11:23:49.082Z,5684.00
2023-03-28T11:24:48.056Z,5136.00
2023-03-28T11:25:47.990Z,5320.00
2023-03-28T11:26:47.997Z,6436.00
2023-03-28T11:27:47.996Z,8204.00
2023-03-28T11:28:48.004Z,12760.00
2023-03-28T11:29:47.978Z,11428.00
2023-03-28T11:30:47.928Z,9464.00
2023-03-28T11:31:48.059Z,8740.00
2023-03-28T11:32:47.946Z,7712.00
2023-03-28T11:33:47.915Z,8472.00
2023-03-28T11:34:47.887Z,7300.00
2023-03-28T11:35:47.963Z,10528.00
2023-03-28T11:36:47.881Z,6500.00
2023-03-28T11:37:47.846Z,5160.00
2023-03-28T11:38:47.846Z,4800.00
2023-03-28T11:39:47.870Z,4716.00
2023-03-28T11:40:47.832Z,5008.00
2023-03-28T11:41:47.938Z,5512.00
2023-03-28T11:42:47.796Z,10328.00
2023-03-28T11:43:47.819Z,5908.00
2023-03-28T11:44:47.798Z,10192.00
2023-03-28T11:45:52.133Z,9716.00
2023-03-28T11:46:48.859Z,4924.00
2023-03-28T11:47:47.816Z,7940.00
2023-03-28T11:48:47.762Z,10760.00
2023-03-28T11:49:47.710Z,6696.00
2023-03-28T11:50:47.751Z,7752.00
2023-03-28T11:51:47.694Z,5072.00
2023-03-28T11:52:47.674Z,6564.00
2023-03-28T11:53:47.666Z,10348.00
2023-03-28T11:54:47.689Z,11188.00
2023-03-28T11:55:47.665Z,6516.00
2023-03-28T11:56:47.640Z,6896.00
2023-03-28T11:57:47.633Z,8224.00
2023-03-28T11:58:47.610Z,8328.00
2023-03-28T11:59:47.620Z,7684.00
2023-03-28T12:00:47.640Z,8064.00
2023-03-28T12:01:47.584Z,7856.00
2023-03-28T12:02:47.655Z,6892.00
2023-03-28T12:03:47.637Z,9268.00
2023-03-28T12:04:47.543Z,8424.00
2023-03-28T12:05:47.551Z,10100.00
2023-03-28T12:06:59.634Z,6508.00
2023-03-28T12:07:48.510Z,5392.00
2023-03-28T12:08:47.517Z,4760.00
2023-03-28T12:09:47.515Z,4736.00
2023-03-28T12:10:47.496Z,5208.00
2023-03-28T12:11:47.462Z,10264.00
2023-03-28T12:12:47.464Z,8948.00
2023-03-28T12:13:55.439Z,4608.00
2023-03-28T12:14:48.432Z,8260.00
2023-03-28T12:15:47.448Z,4268.00
2023-03-28T12:16:47.501Z,9192.00
2023-03-28T12:17:47.431Z,9356.00
2023-03-28T12:18:47.407Z,9080.00
2023-03-28T12:19:47.466Z,9220.00
2023-03-28T12:20:47.363Z,5428.00
2023-03-28T12:21:47.357Z,4828.00
2023-03-28T12:22:47.371Z,4936.00
2023-03-28T12:23:47.341Z,4888.00
2023-03-28T12:24:47.320Z,5240.00
2023-03-28T12:25:47.330Z,6472.00
2023-03-28T12:26:47.376Z,4344.00
2023-03-28T12:27:47.289Z,5120.00
2023-03-28T12:28:47.273Z,11672.00
2023-03-28T12:29:47.282Z,10844.00
2023-03-28T12:30:47.266Z,5536.00
2023-03-28T12:31:47.269Z,5740.00
2023-03-28T12:32:47.229Z,10056.00
2023-03-28T12:33:47.221Z,10420.00
2023-03-28T12:34:47.227Z,10244.00
2023-03-28T12:35:47.233Z,6984.00
2023-03-28T12:36:47.192Z,6876.00
2023-03-28T12:37:47.189Z,6328.00
2023-03-28T12:38:47.160Z,6224.00
2023-03-28T12:39:47.178Z,5280.00
2023-03-28T12:40:47.160Z,5260.00
2023-03-28T12:41:47.129Z,5232.00
2023-03-28T12:42:47.110Z,4316.00
2023-03-28T12:43:47.095Z,3932.00
2023-03-28T12:44:47.119Z,4144.00
2023-03-28T12:45:47.142Z,4908.00
2023-03-28T12:46:47.062Z,5348.00
2023-03-28T12:47:47.114Z,5784.00
2023-03-28T12:48:47.044Z,5704.00
2023-03-28T12:49:47.025Z,5468.00
2023-03-28T12:50:47.060Z,5144.00
2023-03-28T12:51:47.008Z,4372.00
2023-03-28T12:52:47.000Z,4128.00
2023-03-28T12:53:46.989Z,4392.00
2023-03-28T12:54:46.970Z,4376.00
2023-03-28T12:55:46.982Z,5068.00
2023-03-28T12:56:46.992Z,3508.00
2023-03-28T12:57:47.058Z,3652.00